Pagrindinis puslapis
METAR-TAF:

METAR-TAF

Oro uostai :

Komatsu, Japonija

platuma: 36-23N, ilguma: 136-25E, Aukštis: 6 m

Dabartinis oras

Ataskaita buvo paskelbta 38 minutes, ne 17:00 UTC
Vėjas 7 kt iš Vakarų, svyruoja nuo Vakarų/Pietvakarių ir Šiaurės Vakarų
Temperatūra 7°C
Drėgmė 81%
Slėgis 1023 hPa
Matomumas: 9000 m
Mažai debesys ne aukštis 2000 ft
Su prošvaistėmis ne aukštis 3000 ft
Su prošvaistėmis ne aukštis 5000 ft
lietus

METAR: RJNK 071700Z 28007KT 240V310 9000 -SHRA FEW020 BKN030 BKN050 07/04 Q1023

Laikas: 02:38 (17:38 UTC)

Prognozė

Ataskaita buvo paskelbta 30 minutes, ne 17:08 UTC
Prognozė galioja nuo 07 metu 18 UTC su 09 metu 00 UTC
Vėjas 6 kt iš Rytų/Šiaurės Rytų
Matomumas: 8000 m
Mažai debesys ne aukštis 1000 ft
Su prošvaistėmis ne aukštis 2000 ft
lietus
Laikinai
nuo 07 metu 18 UTC su 07 metu 22 UTC
Matomumas: 4000 m
lietus, rūkana
Tapsmas
nuo 08 metu 15 UTC su 08 metu 18 UTC
Vėjas 5 kt iš Pietų

TAF: RJNK 071708Z 0718/0900 06006KT 8000 -SHRA FEW010 BKN020 TEMPO 0718/0722 4000 -SHRA BR BECMG 0815/0818 18005KT

Orai ataskaitas ir orų prognozės (METAR, TAF).

turimą stotys yra geltonos ir raudonos taškus žemėlapyje.

Perkelti pele per norėdami pamatyti stoties vardą.

Tada spustelėkite, norėdami matyti oro stebėjimo ir prognozės.

Norėdami pakeisti žemėlapį: spustelėkite ant žalios mygtukų su juodo kryžiaus žemyn,; žalią mygtuką su brūkšneliu, jei norite nutolinti; arba žalių rodyklių gretimoms žemėlapius.


METAR-TAF: